sensor_id;sensor_type;location;lat;lon;timestamp;P1;durP1;ratioP1;P2;durP2;ratioP2
21837;SDS011;11081;45.946;6.140;2022-07-10T00:00:00;2.10;;;1.20;;
21837;SDS011;11081;45.946;6.140;2022-07-10T00:02:37;1.80;;;1.30;;
21837;SDS011;11081;45.946;6.140;2022-07-10T00:05:06;4.82;;;1.27;;
21837;SDS011;11081;45.946;6.140;2022-07-10T00:07:36;2.13;;;1.20;;
21837;SDS011;11081;45.946;6.140;2022-07-10T00:10:04;2.92;;;1.13;;
21837;SDS011;11081;45.946;6.140;2022-07-10T00:12:33;3.40;;;1.00;;
21837;SDS011;11081;45.946;6.140;2022-07-10T00:15:01;2.13;;;1.05;;
21837;SDS011;11081;45.946;6.140;2022-07-10T00:17:29;4.03;;;1.38;;
21837;SDS011;11081;45.946;6.140;2022-07-10T00:19:57;2.30;;;1.13;;
21837;SDS011;11081;45.946;6.140;2022-07-10T00:22:26;4.00;;;1.10;;
21837;SDS011;11081;45.946;6.140;2022-07-10T00:24:55;3.90;;;1.00;;
21837;SDS011;11081;45.946;6.140;2022-07-10T00:27:23;4.32;;;1.38;;
21837;SDS011;11081;45.946;6.140;2022-07-10T00:29:51;1.65;;;1.17;;
21837;SDS011;11081;45.946;6.140;2022-07-10T00:32:19;4.32;;;1.20;;
21837;SDS011;11081;45.946;6.140;2022-07-10T00:34:47;1.83;;;0.90;;
21837;SDS011;11081;45.946;6.140;2022-07-10T00:37:15;2.67;;;0.98;;
21837;SDS011;11081;45.946;6.140;2022-07-10T00:39:43;2.47;;;1.30;;
21837;SDS011;11081;45.946;6.140;2022-07-10T00:42:13;3.00;;;1.20;;
21837;SDS011;11081;45.946;6.140;2022-07-10T00:44:42;1.70;;;1.00;;
21837;SDS011;11081;45.946;6.140;2022-07-10T00:47:11;2.83;;;1.00;;
21837;SDS011;11081;45.946;6.140;2022-07-10T00:49:40;2.50;;;1.35;;
21837;SDS011;11081;45.946;6.140;2022-07-10T00:52:13;4.38;;;1.30;;
21837;SDS011;11081;45.946;6.140;2022-07-10T00:54:42;2.65;;;1.17;;
21837;SDS011;11081;45.946;6.140;2022-07-10T00:57:14;1.85;;;1.05;;
21837;SDS011;11081;45.946;6.140;2022-07-10T00:59:43;2.47;;;1.30;;
21837;SDS011;11081;45.946;6.140;2022-07-10T01:02:12;3.47;;;1.23;;
21837;SDS011;11081;45.946;6.140;2022-07-10T01:04:41;2.50;;;1.20;;
21837;SDS011;11081;45.946;6.140;2022-07-10T01:07:09;2.55;;;1.10;;
21837;SDS011;11081;45.946;6.140;2022-07-10T01:09:37;2.85;;;1.30;;
21837;SDS011;11081;45.946;6.140;2022-07-10T01:12:06;1.75;;;1.60;;
21837;SDS011;11081;45.946;6.140;2022-07-10T01:14:38;1.80;;;1.20;;
21837;SDS011;11081;45.946;6.140;2022-07-10T01:17:06;3.08;;;1.30;;
21837;SDS011;11081;45.946;6.140;2022-07-10T01:19:35;4.28;;;1.10;;
21837;SDS011;11081;45.946;6.140;2022-07-10T01:22:05;1.45;;;1.10;;
21837;SDS011;11081;45.946;6.140;2022-07-10T01:24:33;5.00;;;1.30;;
21837;SDS011;11081;45.946;6.140;2022-07-10T01:27:01;2.70;;;1.10;;
21837;SDS011;11081;45.946;6.140;2022-07-10T01:29:29;4.05;;;1.23;;
21837;SDS011;11081;45.946;6.140;2022-07-10T01:31:58;4.20;;;1.10;;
21837;SDS011;11081;45.946;6.140;2022-07-10T01:34:28;1.85;;;1.10;;
21837;SDS011;11081;45.946;6.140;2022-07-10T01:36:56;3.17;;;1.27;;
21837;SDS011;11081;45.946;6.140;2022-07-10T01:39:26;6.10;;;1.30;;
21837;SDS011;11081;45.946;6.140;2022-07-10T01:41:54;1.75;;;1.42;;
21837;SDS011;11081;45.946;6.140;2022-07-10T01:44:21;2.25;;;1.17;;
21837;SDS011;11081;45.946;6.140;2022-07-10T01:46:49;4.25;;;1.20;;
21837;SDS011;11081;45.946;6.140;2022-07-10T01:49:17;2.90;;;1.10;;
21837;SDS011;11081;45.946;6.140;2022-07-10T01:51:46;3.88;;;1.30;;
21837;SDS011;11081;45.946;6.140;2022-07-10T01:54:14;4.50;;;1.30;;
21837;SDS011;11081;45.946;6.140;2022-07-10T01:56:43;3.53;;;1.98;;
21837;SDS011;11081;45.946;6.140;2022-07-10T01:59:11;4.78;;;1.20;;
21837;SDS011;11081;45.946;6.140;2022-07-10T02:01:39;4.22;;;1.35;;
21837;SDS011;11081;45.946;6.140;2022-07-10T02:04:07;3.28;;;1.17;;
21837;SDS011;11081;45.946;6.140;2022-07-10T02:06:52;2.45;;;1.10;;
21837;SDS011;11081;45.946;6.140;2022-07-10T02:09:20;3.45;;;1.15;;
21837;SDS011;11081;45.946;6.140;2022-07-10T02:11:50;2.22;;;1.15;;
21837;SDS011;11081;45.946;6.140;2022-07-10T02:14:18;2.65;;;1.13;;
21837;SDS011;11081;45.946;6.140;2022-07-10T02:16:46;4.47;;;1.20;;
21837;SDS011;11081;45.946;6.140;2022-07-10T02:19:14;1.98;;;1.20;;
21837;SDS011;11081;45.946;6.140;2022-07-10T02:21:42;2.22;;;1.30;;
21837;SDS011;11081;45.946;6.140;2022-07-10T02:24:10;4.18;;;1.20;;
21837;SDS011;11081;45.946;6.140;2022-07-10T02:26:38;1.88;;;1.05;;
21837;SDS011;11081;45.946;6.140;2022-07-10T02:29:07;1.60;;;1.00;;
21837;SDS011;11081;45.946;6.140;2022-07-10T02:31:35;4.40;;;1.10;;
21837;SDS011;11081;45.946;6.140;2022-07-10T02:34:07;3.13;;;1.23;;
21837;SDS011;11081;45.946;6.140;2022-07-10T02:36:36;2.60;;;1.60;;
21837;SDS011;11081;45.946;6.140;2022-07-10T02:39:06;2.20;;;1.13;;
21837;SDS011;11081;45.946;6.140;2022-07-10T02:41:35;2.67;;;1.30;;
21837;SDS011;11081;45.946;6.140;2022-07-10T02:44:03;3.42;;;1.30;;
21837;SDS011;11081;45.946;6.140;2022-07-10T02:46:33;2.13;;;1.30;;
21837;SDS011;11081;45.946;6.140;2022-07-10T02:49:01;1.48;;;1.17;;
21837;SDS011;11081;45.946;6.140;2022-07-10T02:51:30;2.65;;;1.10;;
21837;SDS011;11081;45.946;6.140;2022-07-10T02:53:58;3.78;;;1.33;;
21837;SDS011;11081;45.946;6.140;2022-07-10T02:56:26;2.28;;;1.13;;
21837;SDS011;11081;45.946;6.140;2022-07-10T02:58:54;4.65;;;1.20;;
21837;SDS011;11081;45.946;6.140;2022-07-10T03:01:22;2.85;;;1.30;;
21837;SDS011;11081;45.946;6.140;2022-07-10T03:03:52;2.13;;;1.13;;
21837;SDS011;11081;45.946;6.140;2022-07-10T03:06:20;2.22;;;1.30;;
21837;SDS011;11081;45.946;6.140;2022-07-10T03:08:48;2.63;;;1.23;;
21837;SDS011;11081;45.946;6.140;2022-07-10T03:11:16;1.58;;;1.00;;
21837;SDS011;11081;45.946;6.140;2022-07-10T03:13:44;2.38;;;1.33;;
21837;SDS011;11081;45.946;6.140;2022-07-10T03:16:12;2.42;;;1.05;;
21837;SDS011;11081;45.946;6.140;2022-07-10T03:18:40;2.10;;;1.30;;
21837;SDS011;11081;45.946;6.140;2022-07-10T03:21:10;1.48;;;1.10;;
21837;SDS011;11081;45.946;6.140;2022-07-10T03:23:39;2.15;;;1.25;;
21837;SDS011;11081;45.946;6.140;2022-07-10T03:26:07;1.77;;;1.23;;
21837;SDS011;11081;45.946;6.140;2022-07-10T03:28:35;2.70;;;1.30;;
21837;SDS011;11081;45.946;6.140;2022-07-10T03:31:03;3.30;;;1.38;;
21837;SDS011;11081;45.946;6.140;2022-07-10T03:33:31;2.08;;;1.25;;
21837;SDS011;11081;45.946;6.140;2022-07-10T03:35:59;1.55;;;1.13;;
21837;SDS011;11081;45.946;6.140;2022-07-10T03:38:31;2.60;;;1.40;;
21837;SDS011;11081;45.946;6.140;2022-07-10T03:40:59;1.42;;;1.05;;
21837;SDS011;11081;45.946;6.140;2022-07-10T03:43:27;2.08;;;1.15;;
21837;SDS011;11081;45.946;6.140;2022-07-10T03:45:55;2.15;;;1.30;;
21837;SDS011;11081;45.946;6.140;2022-07-10T03:48:24;1.95;;;1.33;;
21837;SDS011;11081;45.946;6.140;2022-07-10T03:50:52;2.20;;;1.17;;
21837;SDS011;11081;45.946;6.140;2022-07-10T03:53:20;3.35;;;1.48;;
21837;SDS011;11081;45.946;6.140;2022-07-10T03:55:49;6.35;;;1.50;;
21837;SDS011;11081;45.946;6.140;2022-07-10T03:58:17;2.90;;;1.38;;
21837;SDS011;11081;45.946;6.140;2022-07-10T04:00:44;4.22;;;1.40;;
21837;SDS011;11081;45.946;6.140;2022-07-10T04:03:12;2.30;;;1.10;;
21837;SDS011;11081;45.946;6.140;2022-07-10T04:05:40;3.88;;;1.17;;
21837;SDS011;11081;45.946;6.140;2022-07-10T04:08:08;1.52;;;1.00;;
21837;SDS011;11081;45.946;6.140;2022-07-10T04:10:37;2.22;;;1.15;;
21837;SDS011;11081;45.946;6.140;2022-07-10T04:13:07;2.15;;;1.20;;
21837;SDS011;11081;45.946;6.140;2022-07-10T04:15:35;6.25;;;1.65;;
21837;SDS011;11081;45.946;6.140;2022-07-10T04:18:03;2.05;;;1.30;;
21837;SDS011;11081;45.946;6.140;2022-07-10T04:20:31;1.65;;;1.10;;
21837;SDS011;11081;45.946;6.140;2022-07-10T04:22:59;2.10;;;1.27;;
21837;SDS011;11081;45.946;6.140;2022-07-10T04:25:27;2.83;;;1.00;;
21837;SDS011;11081;45.946;6.140;2022-07-10T04:27:55;1.25;;;1.02;;
21837;SDS011;11081;45.946;6.140;2022-07-10T04:30:25;1.92;;;0.98;;
21837;SDS011;11081;45.946;6.140;2022-07-10T04:32:53;3.47;;;0.98;;
21837;SDS011;11081;45.946;6.140;2022-07-10T04:35:21;1.35;;;1.10;;
21837;SDS011;11081;45.946;6.140;2022-07-10T04:37:49;1.38;;;0.90;;
21837;SDS011;11081;45.946;6.140;2022-07-10T04:40:17;0.90;;;0.80;;
21837;SDS011;11081;45.946;6.140;2022-07-10T04:42:45;1.15;;;1.05;;
21837;SDS011;11081;45.946;6.140;2022-07-10T04:45:13;1.55;;;1.00;;
21837;SDS011;11081;45.946;6.140;2022-07-10T04:47:42;2.30;;;1.13;;
21837;SDS011;11081;45.946;6.140;2022-07-10T04:50:10;8.18;;;1.05;;
21837;SDS011;11081;45.946;6.140;2022-07-10T04:52:38;1.00;;;0.90;;
21837;SDS011;11081;45.946;6.140;2022-07-10T04:55:06;2.80;;;0.90;;
21837;SDS011;11081;45.946;6.140;2022-07-10T04:57:35;1.25;;;1.00;;
21837;SDS011;11081;45.946;6.140;2022-07-10T05:00:04;3.47;;;1.20;;
21837;SDS011;11081;45.946;6.140;2022-07-10T05:02:33;12.50;;;1.08;;
21837;SDS011;11081;45.946;6.140;2022-07-10T05:05:02;1.35;;;1.02;;
21837;SDS011;11081;45.946;6.140;2022-07-10T05:07:31;2.45;;;1.00;;
21837;SDS011;11081;45.946;6.140;2022-07-10T05:09:59;1.70;;;0.93;;
21837;SDS011;11081;45.946;6.140;2022-07-10T05:12:27;1.17;;;0.95;;
21837;SDS011;11081;45.946;6.140;2022-07-10T05:14:55;2.60;;;1.20;;
21837;SDS011;11081;45.946;6.140;2022-07-10T05:17:23;3.17;;;1.30;;
21837;SDS011;11081;45.946;6.140;2022-07-10T05:19:51;3.08;;;1.13;;
21837;SDS011;11081;45.946;6.140;2022-07-10T05:22:23;5.10;;;1.00;;
21837;SDS011;11081;45.946;6.140;2022-07-10T05:24:51;1.90;;;1.02;;
21837;SDS011;11081;45.946;6.140;2022-07-10T05:27:20;1.42;;;1.00;;
21837;SDS011;11081;45.946;6.140;2022-07-10T05:29:47;2.85;;;1.05;;
21837;SDS011;11081;45.946;6.140;2022-07-10T05:32:16;2.10;;;1.20;;
21837;SDS011;11081;45.946;6.140;2022-07-10T05:34:44;3.05;;;1.45;;
21837;SDS011;11081;45.946;6.140;2022-07-10T05:37:11;1.50;;;1.10;;
21837;SDS011;11081;45.946;6.140;2022-07-10T05:39:41;1.27;;;1.15;;
21837;SDS011;11081;45.946;6.140;2022-07-10T05:42:09;3.13;;;1.67;;
21837;SDS011;11081;45.946;6.140;2022-07-10T05:44:37;2.25;;;1.10;;
21837;SDS011;11081;45.946;6.140;2022-07-10T05:47:05;2.50;;;1.30;;
21837;SDS011;11081;45.946;6.140;2022-07-10T05:49:33;3.58;;;1.45;;
21837;SDS011;11081;45.946;6.140;2022-07-10T05:52:01;2.28;;;1.38;;
21837;SDS011;11081;45.946;6.140;2022-07-10T05:54:29;2.08;;;1.25;;
21837;SDS011;11081;45.946;6.140;2022-07-10T05:56:59;3.67;;;1.77;;
21837;SDS011;11081;45.946;6.140;2022-07-10T05:59:26;1.90;;;1.50;;
21837;SDS011;11081;45.946;6.140;2022-07-10T06:01:54;3.20;;;1.20;;
21837;SDS011;11081;45.946;6.140;2022-07-10T06:04:23;4.07;;;1.60;;
21837;SDS011;11081;45.946;6.140;2022-07-10T06:06:51;2.35;;;1.23;;
21837;SDS011;11081;45.946;6.140;2022-07-10T06:09:19;3.50;;;1.48;;
21837;SDS011;11081;45.946;6.140;2022-07-10T06:11:47;3.63;;;1.40;;
21837;SDS011;11081;45.946;6.140;2022-07-10T06:14:17;3.58;;;1.45;;
21837;SDS011;11081;45.946;6.140;2022-07-10T06:16:45;2.17;;;1.15;;
21837;SDS011;11081;45.946;6.140;2022-07-10T06:19:13;3.72;;;1.33;;
21837;SDS011;11081;45.946;6.140;2022-07-10T06:21:43;3.38;;;1.20;;
21837;SDS011;11081;45.946;6.140;2022-07-10T06:24:11;1.98;;;1.30;;
21837;SDS011;11081;45.946;6.140;2022-07-10T06:26:39;1.90;;;1.23;;
21837;SDS011;11081;45.946;6.140;2022-07-10T06:29:07;4.10;;;1.20;;
21837;SDS011;11081;45.946;6.140;2022-07-10T06:31:37;1.40;;;1.13;;
21837;SDS011;11081;45.946;6.140;2022-07-10T06:34:05;2.03;;;1.30;;
21837;SDS011;11081;45.946;6.140;2022-07-10T06:36:33;1.70;;;1.20;;
21837;SDS011;11081;45.946;6.140;2022-07-10T06:39:01;2.80;;;0.93;;
21837;SDS011;11081;45.946;6.140;2022-07-10T06:41:29;1.52;;;0.90;;
21837;SDS011;11081;45.946;6.140;2022-07-10T06:43:57;1.67;;;0.95;;
21837;SDS011;11081;45.946;6.140;2022-07-10T06:46:27;1.35;;;0.90;;
21837;SDS011;11081;45.946;6.140;2022-07-10T06:48:56;1.23;;;0.98;;
21837;SDS011;11081;45.946;6.140;2022-07-10T06:51:24;1.63;;;1.20;;
21837;SDS011;11081;45.946;6.140;2022-07-10T06:53:52;1.33;;;1.10;;
21837;SDS011;11081;45.946;6.140;2022-07-10T06:56:20;3.67;;;1.73;;
21837;SDS011;11081;45.946;6.140;2022-07-10T06:58:48;1.67;;;1.15;;
21837;SDS011;11081;45.946;6.140;2022-07-10T07:01:20;4.63;;;1.40;;
21837;SDS011;11081;45.946;6.140;2022-07-10T07:03:48;3.13;;;1.10;;
21837;SDS011;11081;45.946;6.140;2022-07-10T07:06:17;1.90;;;1.23;;
21837;SDS011;11081;45.946;6.140;2022-07-10T07:08:45;1.70;;;0.98;;
21837;SDS011;11081;45.946;6.140;2022-07-10T07:11:13;3.00;;;1.10;;
21837;SDS011;11081;45.946;6.140;2022-07-10T07:13:41;1.30;;;1.10;;
21837;SDS011;11081;45.946;6.140;2022-07-10T07:16:09;4.13;;;1.40;;
21837;SDS011;11081;45.946;6.140;2022-07-10T07:18:40;4.47;;;1.25;;
21837;SDS011;11081;45.946;6.140;2022-07-10T07:21:15;2.80;;;1.33;;
21837;SDS011;11081;45.946;6.140;2022-07-10T07:23:58;1.92;;;1.00;;
21837;SDS011;11081;45.946;6.140;2022-07-10T07:26:26;2.95;;;1.30;;
21837;SDS011;11081;45.946;6.140;2022-07-10T07:28:55;4.40;;;1.60;;
21837;SDS011;11081;45.946;6.140;2022-07-10T07:31:23;1.70;;;1.25;;
21837;SDS011;11081;45.946;6.140;2022-07-10T07:33:51;3.13;;;1.45;;
21837;SDS011;11081;45.946;6.140;2022-07-10T07:36:19;1.55;;;1.13;;
21837;SDS011;11081;45.946;6.140;2022-07-10T07:38:47;3.10;;;1.33;;
21837;SDS011;11081;45.946;6.140;2022-07-10T07:41:16;3.40;;;1.15;;
21837;SDS011;11081;45.946;6.140;2022-07-10T07:43:44;4.80;;;1.23;;
21837;SDS011;11081;45.946;6.140;2022-07-10T07:46:12;1.25;;;1.00;;
21837;SDS011;11081;45.946;6.140;2022-07-10T07:48:40;3.30;;;1.35;;
21837;SDS011;11081;45.946;6.140;2022-07-10T07:51:08;1.58;;;1.27;;
21837;SDS011;11081;45.946;6.140;2022-07-10T07:53:37;3.22;;;1.40;;
21837;SDS011;11081;45.946;6.140;2022-07-10T07:56:05;5.63;;;1.35;;
21837;SDS011;11081;45.946;6.140;2022-07-10T07:58:35;6.50;;;1.05;;
21837;SDS011;11081;45.946;6.140;2022-07-10T08:01:03;2.08;;;1.08;;
21837;SDS011;11081;45.946;6.140;2022-07-10T08:03:31;3.13;;;1.40;;
21837;SDS011;11081;45.946;6.140;2022-07-10T08:06:19;2.38;;;1.20;;
21837;SDS011;11081;45.946;6.140;2022-07-10T08:08:47;1.80;;;1.10;;
21837;SDS011;11081;45.946;6.140;2022-07-10T08:11:15;1.88;;;1.10;;
21837;SDS011;11081;45.946;6.140;2022-07-10T08:13:45;1.35;;;1.00;;
21837;SDS011;11081;45.946;6.140;2022-07-10T08:16:13;2.10;;;1.13;;
21837;SDS011;11081;45.946;6.140;2022-07-10T08:18:41;3.50;;;1.70;;
21837;SDS011;11081;45.946;6.140;2022-07-10T08:21:10;3.53;;;1.30;;
21837;SDS011;11081;45.946;6.140;2022-07-10T08:23:38;1.92;;;1.27;;
21837;SDS011;11081;45.946;6.140;2022-07-10T08:26:06;1.83;;;1.27;;
21837;SDS011;11081;45.946;6.140;2022-07-10T08:28:34;1.95;;;1.00;;
21837;SDS011;11081;45.946;6.140;2022-07-10T08:31:04;2.42;;;1.15;;
21837;SDS011;11081;45.946;6.140;2022-07-10T08:33:37;2.17;;;1.25;;
21837;SDS011;11081;45.946;6.140;2022-07-10T08:36:05;4.72;;;1.27;;
21837;SDS011;11081;45.946;6.140;2022-07-10T08:38:53;6.05;;;1.45;;
21837;SDS011;11081;45.946;6.140;2022-07-10T08:41:22;2.33;;;1.20;;
21837;SDS011;11081;45.946;6.140;2022-07-10T08:43:53;2.35;;;1.30;;
21837;SDS011;11081;45.946;6.140;2022-07-10T08:46:22;2.10;;;1.20;;
21837;SDS011;11081;45.946;6.140;2022-07-10T08:48:51;1.75;;;0.93;;
21837;SDS011;11081;45.946;6.140;2022-07-10T08:51:22;5.05;;;1.40;;
21837;SDS011;11081;45.946;6.140;2022-07-10T08:53:57;2.20;;;1.27;;
21837;SDS011;11081;45.946;6.140;2022-07-10T08:56:28;3.67;;;1.30;;
21837;SDS011;11081;45.946;6.140;2022-07-10T08:58:56;4.43;;;1.08;;
21837;SDS011;11081;45.946;6.140;2022-07-10T09:01:28;2.63;;;1.10;;
21837;SDS011;11081;45.946;6.140;2022-07-10T09:03:56;1.80;;;1.13;;
21837;SDS011;11081;45.946;6.140;2022-07-10T09:06:24;3.47;;;1.20;;
21837;SDS011;11081;45.946;6.140;2022-07-10T09:08:58;3.35;;;1.25;;
21837;SDS011;11081;45.946;6.140;2022-07-10T09:11:27;3.42;;;0.95;;
21837;SDS011;11081;45.946;6.140;2022-07-10T09:13:57;1.75;;;1.00;;
21837;SDS011;11081;45.946;6.140;2022-07-10T09:16:27;1.65;;;1.13;;
21837;SDS011;11081;45.946;6.140;2022-07-10T09:19:14;1.13;;;0.93;;
21837;SDS011;11081;45.946;6.140;2022-07-10T09:21:43;3.80;;;1.10;;
21837;SDS011;11081;45.946;6.140;2022-07-10T09:24:12;1.38;;;1.10;;
21837;SDS011;11081;45.946;6.140;2022-07-10T09:26:40;1.67;;;1.00;;
21837;SDS011;11081;45.946;6.140;2022-07-10T09:29:09;4.35;;;1.55;;
21837;SDS011;11081;45.946;6.140;2022-07-10T09:31:49;3.25;;;1.10;;
21837;SDS011;11081;45.946;6.140;2022-07-10T09:34:34;0.93;;;0.80;;
21837;SDS011;11081;45.946;6.140;2022-07-10T09:37:22;3.25;;;1.38;;
21837;SDS011;11081;45.946;6.140;2022-07-10T09:39:54;4.47;;;1.40;;
21837;SDS011;11081;45.946;6.140;2022-07-10T09:42:27;5.45;;;1.52;;
21837;SDS011;11081;45.946;6.140;2022-07-10T09:45:16;2.97;;;1.48;;
21837;SDS011;11081;45.946;6.140;2022-07-10T09:47:53;3.22;;;1.00;;
21837;SDS011;11081;45.946;6.140;2022-07-10T09:50:24;2.78;;;1.23;;
21837;SDS011;11081;45.946;6.140;2022-07-10T09:52:53;1.98;;;1.10;;
21837;SDS011;11081;45.946;6.140;2022-07-10T09:55:24;2.13;;;1.10;;
21837;SDS011;11081;45.946;6.140;2022-07-10T09:57:54;1.88;;;1.00;;
21837;SDS011;11081;45.946;6.140;2022-07-10T10:00:24;1.92;;;1.02;;
21837;SDS011;11081;45.946;6.140;2022-07-10T10:02:56;2.10;;;1.17;;
21837;SDS011;11081;45.946;6.140;2022-07-10T10:05:28;5.65;;;1.30;;
21837;SDS011;11081;45.946;6.140;2022-07-10T10:08:04;3.60;;;1.25;;
21837;SDS011;11081;45.946;6.140;2022-07-10T10:10:40;2.35;;;1.00;;
21837;SDS011;11081;45.946;6.140;2022-07-10T10:13:11;3.63;;;1.10;;
21837;SDS011;11081;45.946;6.140;2022-07-10T10:15:39;3.25;;;1.02;;
21837;SDS011;11081;45.946;6.140;2022-07-10T10:18:11;1.63;;;1.10;;
21837;SDS011;11081;45.946;6.140;2022-07-10T10:20:40;6.07;;;1.55;;
21837;SDS011;11081;45.946;6.140;2022-07-10T10:23:09;1.83;;;1.10;;
21837;SDS011;11081;45.946;6.140;2022-07-10T10:25:38;3.20;;;1.15;;
21837;SDS011;11081;45.946;6.140;2022-07-10T10:28:08;2.08;;;1.00;;
21837;SDS011;11081;45.946;6.140;2022-07-10T10:30:42;1.23;;;0.88;;
21837;SDS011;11081;45.946;6.140;2022-07-10T10:36:13;1.30;;;0.73;;
21837;SDS011;11081;45.946;6.140;2022-07-10T10:38:59;2.58;;;0.80;;
21837;SDS011;11081;45.946;6.140;2022-07-10T10:41:29;1.95;;;0.75;;
21837;SDS011;11081;45.946;6.140;2022-07-10T10:46:56;1.52;;;0.80;;
21837;SDS011;11081;45.946;6.140;2022-07-10T10:52:27;2.50;;;0.80;;
21837;SDS011;11081;45.946;6.140;2022-07-10T10:54:59;1.88;;;0.60;;
21837;SDS011;11081;45.946;6.140;2022-07-10T10:57:41;2.55;;;1.02;;
21837;SDS011;11081;45.946;6.140;2022-07-10T11:00:28;1.30;;;0.60;;
21837;SDS011;11081;45.946;6.140;2022-07-10T11:03:13;1.60;;;0.60;;
21837;SDS011;11081;45.946;6.140;2022-07-10T11:05:44;2.20;;;0.70;;
21837;SDS011;11081;45.946;6.140;2022-07-10T11:08:16;1.55;;;0.57;;
21837;SDS011;11081;45.946;6.140;2022-07-10T11:14:08;1.15;;;0.60;;
21837;SDS011;11081;45.946;6.140;2022-07-10T11:16:37;3.00;;;0.98;;
21837;SDS011;11081;45.946;6.140;2022-07-10T11:19:20;1.73;;;0.60;;
21837;SDS011;11081;45.946;6.140;2022-07-10T11:25:18;1.35;;;0.70;;
21837;SDS011;11081;45.946;6.140;2022-07-10T11:28:03;0.77;;;0.70;;
21837;SDS011;11081;45.946;6.140;2022-07-10T11:30:49;0.63;;;0.60;;
21837;SDS011;11081;45.946;6.140;2022-07-10T11:33:18;3.30;;;0.80;;
21837;SDS011;11081;45.946;6.140;2022-07-10T11:35:48;6.65;;;0.70;;
21837;SDS011;11081;45.946;6.140;2022-07-10T11:38:20;0.88;;;0.65;;
21837;SDS011;11081;45.946;6.140;2022-07-10T11:40:51;1.77;;;0.77;;
21837;SDS011;11081;45.946;6.140;2022-07-10T11:43:20;0.88;;;0.60;;
21837;SDS011;11081;45.946;6.140;2022-07-10T11:45:51;0.75;;;0.70;;
21837;SDS011;11081;45.946;6.140;2022-07-10T11:48:21;0.90;;;0.80;;
21837;SDS011;11081;45.946;6.140;2022-07-10T11:50:50;1.10;;;0.60;;
21837;SDS011;11081;45.946;6.140;2022-07-10T11:53:22;1.70;;;0.80;;
21837;SDS011;11081;45.946;6.140;2022-07-10T11:55:52;0.77;;;0.68;;
21837;SDS011;11081;45.946;6.140;2022-07-10T11:58:21;0.60;;;0.40;;
21837;SDS011;11081;45.946;6.140;2022-07-10T12:00:59;1.60;;;0.70;;
21837;SDS011;11081;45.946;6.140;2022-07-10T12:03:31;2.42;;;0.85;;
21837;SDS011;11081;45.946;6.140;2022-07-10T12:06:03;3.75;;;1.15;;
21837;SDS011;11081;45.946;6.140;2022-07-10T12:08:41;3.33;;;0.75;;
21837;SDS011;11081;45.946;6.140;2022-07-10T12:11:13;3.10;;;1.00;;
21837;SDS011;11081;45.946;6.140;2022-07-10T12:13:42;2.25;;;0.98;;
21837;SDS011;11081;45.946;6.140;2022-07-10T12:16:10;1.88;;;0.95;;
21837;SDS011;11081;45.946;6.140;2022-07-10T12:18:39;2.65;;;0.93;;
21837;SDS011;11081;45.946;6.140;2022-07-10T12:21:10;1.00;;;0.90;;
21837;SDS011;11081;45.946;6.140;2022-07-10T12:23:40;2.20;;;0.98;;
21837;SDS011;11081;45.946;6.140;2022-07-10T12:26:10;0.65;;;0.65;;
21837;SDS011;11081;45.946;6.140;2022-07-10T12:28:51;0.75;;;0.60;;
21837;SDS011;11081;45.946;6.140;2022-07-10T12:31:20;2.13;;;0.80;;
21837;SDS011;11081;45.946;6.140;2022-07-10T12:33:50;1.25;;;0.90;;
21837;SDS011;11081;45.946;6.140;2022-07-10T12:36:19;2.00;;;0.70;;
21837;SDS011;11081;45.946;6.140;2022-07-10T12:38:52;2.90;;;0.75;;
21837;SDS011;11081;45.946;6.140;2022-07-10T12:41:22;3.30;;;0.73;;
21837;SDS011;11081;45.946;6.140;2022-07-10T12:43:52;2.53;;;0.73;;
21837;SDS011;11081;45.946;6.140;2022-07-10T12:46:21;2.17;;;0.77;;
21837;SDS011;11081;45.946;6.140;2022-07-10T12:49:01;1.38;;;0.70;;
21837;SDS011;11081;45.946;6.140;2022-07-10T12:51:31;2.00;;;0.77;;
21837;SDS011;11081;45.946;6.140;2022-07-10T12:54:29;1.20;;;0.80;;
21837;SDS011;11081;45.946;6.140;2022-07-10T12:56:58;1.33;;;0.93;;
21837;SDS011;11081;45.946;6.140;2022-07-10T12:59:28;1.55;;;0.60;;
21837;SDS011;11081;45.946;6.140;2022-07-10T13:01:56;2.03;;;0.90;;
21837;SDS011;11081;45.946;6.140;2022-07-10T13:04:25;1.13;;;0.90;;
21837;SDS011;11081;45.946;6.140;2022-07-10T13:06:54;1.63;;;0.80;;
21837;SDS011;11081;45.946;6.140;2022-07-10T13:09:23;4.85;;;0.70;;
21837;SDS011;11081;45.946;6.140;2022-07-10T13:11:52;2.22;;;1.00;;
21837;SDS011;11081;45.946;6.140;2022-07-10T13:14:21;1.52;;;0.80;;
21837;SDS011;11081;45.946;6.140;2022-07-10T13:16:50;1.23;;;0.75;;
21837;SDS011;11081;45.946;6.140;2022-07-10T13:19:18;0.95;;;0.77;;
21837;SDS011;11081;45.946;6.140;2022-07-10T13:21:46;2.35;;;0.60;;
21837;SDS011;11081;45.946;6.140;2022-07-10T13:24:14;1.70;;;0.75;;
21837;SDS011;11081;45.946;6.140;2022-07-10T13:26:43;1.15;;;0.73;;
21837;SDS011;11081;45.946;6.140;2022-07-10T13:29:11;0.82;;;0.63;;
21837;SDS011;11081;45.946;6.140;2022-07-10T13:31:39;3.15;;;0.90;;
21837;SDS011;11081;45.946;6.140;2022-07-10T13:34:09;0.85;;;0.77;;
21837;SDS011;11081;45.946;6.140;2022-07-10T13:36:37;3.25;;;0.70;;
21837;SDS011;11081;45.946;6.140;2022-07-10T13:39:05;1.63;;;0.77;;
21837;SDS011;11081;45.946;6.140;2022-07-10T13:41:33;2.25;;;1.00;;
21837;SDS011;11081;45.946;6.140;2022-07-10T13:44:01;0.95;;;0.77;;
21837;SDS011;11081;45.946;6.140;2022-07-10T13:46:29;2.88;;;0.88;;
21837;SDS011;11081;45.946;6.140;2022-07-10T13:48:58;2.58;;;0.75;;
21837;SDS011;11081;45.946;6.140;2022-07-10T13:51:27;3.80;;;1.05;;
21837;SDS011;11081;45.946;6.140;2022-07-10T13:53:55;2.13;;;1.00;;
21837;SDS011;11081;45.946;6.140;2022-07-10T13:56:23;1.25;;;0.82;;
21837;SDS011;11081;45.946;6.140;2022-07-10T13:58:51;2.60;;;1.10;;
21837;SDS011;11081;45.946;6.140;2022-07-10T14:01:19;2.83;;;0.70;;
21837;SDS011;11081;45.946;6.140;2022-07-10T14:03:48;2.00;;;0.70;;
21837;SDS011;11081;45.946;6.140;2022-07-10T14:06:16;0.85;;;0.68;;
21837;SDS011;11081;45.946;6.140;2022-07-10T14:08:46;1.25;;;0.73;;
21837;SDS011;11081;45.946;6.140;2022-07-10T14:11:14;2.35;;;1.35;;
21837;SDS011;11081;45.946;6.140;2022-07-10T14:13:44;1.83;;;0.82;;
21837;SDS011;11081;45.946;6.140;2022-07-10T14:16:12;1.02;;;0.70;;
21837;SDS011;11081;45.946;6.140;2022-07-10T14:18:40;2.65;;;0.70;;
21837;SDS011;11081;45.946;6.140;2022-07-10T14:21:11;0.63;;;0.60;;
21837;SDS011;11081;45.946;6.140;2022-07-10T14:23:40;2.00;;;0.88;;
21837;SDS011;11081;45.946;6.140;2022-07-10T14:26:12;0.70;;;0.63;;
21837;SDS011;11081;45.946;6.140;2022-07-10T14:28:40;0.60;;;0.50;;
21837;SDS011;11081;45.946;6.140;2022-07-10T14:31:09;1.58;;;0.90;;
21837;SDS011;11081;45.946;6.140;2022-07-10T14:33:37;3.20;;;0.80;;
21837;SDS011;11081;45.946;6.140;2022-07-10T14:36:06;1.13;;;0.85;;
21837;SDS011;11081;45.946;6.140;2022-07-10T14:38:34;1.52;;;0.82;;
21837;SDS011;11081;45.946;6.140;2022-07-10T14:41:03;0.95;;;0.70;;
21837;SDS011;11081;45.946;6.140;2022-07-10T14:43:33;2.78;;;0.77;;
21837;SDS011;11081;45.946;6.140;2022-07-10T14:46:03;1.00;;;0.73;;
21837;SDS011;11081;45.946;6.140;2022-07-10T14:48:32;2.00;;;0.60;;
21837;SDS011;11081;45.946;6.140;2022-07-10T14:51:01;1.80;;;1.00;;
21837;SDS011;11081;45.946;6.140;2022-07-10T14:53:29;2.55;;;1.10;;
21837;SDS011;11081;45.946;6.140;2022-07-10T14:56:01;1.30;;;1.00;;
21837;SDS011;11081;45.946;6.140;2022-07-10T14:58:30;1.10;;;0.75;;
21837;SDS011;11081;45.946;6.140;2022-07-10T15:01:20;3.50;;;0.80;;
21837;SDS011;11081;45.946;6.140;2022-07-10T15:03:48;2.13;;;0.80;;
21837;SDS011;11081;45.946;6.140;2022-07-10T15:06:16;1.27;;;0.90;;
21837;SDS011;11081;45.946;6.140;2022-07-10T15:08:44;1.33;;;0.80;;
21837;SDS011;11081;45.946;6.140;2022-07-10T15:11:12;3.55;;;0.88;;
21837;SDS011;11081;45.946;6.140;2022-07-10T15:13:40;1.40;;;0.85;;
21837;SDS011;11081;45.946;6.140;2022-07-10T15:16:09;1.35;;;0.70;;
21837;SDS011;11081;45.946;6.140;2022-07-10T15:18:38;2.67;;;1.00;;